createdAt,value
2023-02-12T00:00:15.768Z,19.03
2023-02-12T00:05:16.582Z,19.40
2023-02-12T00:10:15.430Z,20.20
2023-02-12T00:15:15.552Z,20.00
2023-02-12T00:20:14.565Z,18.13
2023-02-12T00:25:14.083Z,20.70
2023-02-12T00:30:13.752Z,20.37
2023-02-12T00:35:14.212Z,19.13
2023-02-12T00:40:13.798Z,17.20
2023-02-12T00:45:12.588Z,21.20
2023-02-12T00:50:13.543Z,19.53
2023-02-12T00:55:12.869Z,20.60
2023-02-12T01:00:13.066Z,21.40
2023-02-12T01:05:13.245Z,19.93
2023-02-12T01:10:12.998Z,21.57
2023-02-12T01:15:13.036Z,22.57
2023-02-12T01:20:17.453Z,22.17
2023-02-12T01:25:18.734Z,19.77
2023-02-12T01:30:22.240Z,20.47
2023-02-12T01:40:23.016Z,25.20
2023-02-12T01:45:53.688Z,27.60
2023-02-12T01:50:56.074Z,21.67
2023-02-12T01:55:58.514Z,23.33
2023-02-12T02:00:57.759Z,22.00
2023-02-12T02:06:03.941Z,23.53
2023-02-12T02:11:23.993Z,21.13
2023-02-12T02:16:27.349Z,22.47
2023-02-12T02:21:48.789Z,22.95
2023-02-12T02:27:20.121Z,24.40
2023-02-12T02:32:25.651Z,23.23
2023-02-12T02:37:31.403Z,23.27
2023-02-12T02:42:36.225Z,25.80
2023-02-12T02:47:42.728Z,22.40
2023-02-12T02:52:46.449Z,23.27
2023-02-12T02:57:49.851Z,23.67
2023-02-12T03:02:53.924Z,24.13
2023-02-12T03:07:56.270Z,25.33
2023-02-12T03:12:58.869Z,26.67
2023-02-12T03:18:01.120Z,22.53
2023-02-12T03:23:05.675Z,25.13
2023-02-12T03:28:08.288Z,23.63
2023-02-12T03:33:19.682Z,22.17
2023-02-12T03:38:29.112Z,23.60
2023-02-12T03:43:34.745Z,23.33
2023-02-12T03:48:42.611Z,24.80
2023-02-12T03:53:42.787Z,23.93
2023-02-12T03:58:43.722Z,24.43
2023-02-12T04:03:43.873Z,23.73
2023-02-12T04:08:42.709Z,24.20
2023-02-12T04:13:47.432Z,22.87
2023-02-12T04:18:49.709Z,24.37
2023-02-12T04:23:56.070Z,22.77
2023-02-12T04:29:06.694Z,25.50
2023-02-12T04:34:13.716Z,26.83
2023-02-12T04:39:17.952Z,24.70
2023-02-12T04:44:19.059Z,24.87
2023-02-12T04:49:21.667Z,24.93
2023-02-12T04:54:22.186Z,27.27
2023-02-12T04:59:20.967Z,26.73
2023-02-12T05:04:21.219Z,24.00
2023-02-12T05:09:21.763Z,25.17
2023-02-12T05:14:20.586Z,25.73
2023-02-12T05:19:20.744Z,27.60
2023-02-12T05:24:19.691Z,25.67
2023-02-12T05:29:21.998Z,26.93
2023-02-12T05:34:22.327Z,42.33
2023-02-12T05:39:21.178Z,52.93
2023-02-12T05:44:19.917Z,75.43
2023-02-12T05:49:18.752Z,68.57
2023-02-12T05:54:18.918Z,39.77
2023-02-12T05:59:20.114Z,29.33
2023-02-12T06:04:20.869Z,33.03
2023-02-12T06:09:21.611Z,39.37
2023-02-12T06:14:21.658Z,37.37
2023-02-12T06:19:22.201Z,35.77
2023-02-12T06:24:24.844Z,31.33
2023-02-12T06:29:24.288Z,32.07
2023-02-12T06:34:23.125Z,29.60
2023-02-12T06:39:23.291Z,34.70
2023-02-12T06:44:22.134Z,31.73
2023-02-12T06:49:20.994Z,30.90
2023-02-12T06:54:20.084Z,32.63
2023-02-12T06:59:21.265Z,32.27
2023-02-12T07:04:20.199Z,31.57
2023-02-12T07:09:18.999Z,30.37
2023-02-12T07:14:19.525Z,29.00
2023-02-12T07:19:18.413Z,28.83
2023-02-12T07:24:18.288Z,29.57
2023-02-12T07:29:17.294Z,31.43
2023-02-12T07:34:17.549Z,28.27
2023-02-12T07:39:16.299Z,29.83
2023-02-12T07:44:15.126Z,30.13
2023-02-12T07:49:15.543Z,29.57
2023-02-12T07:54:16.484Z,31.37
2023-02-12T07:59:17.656Z,31.37
2023-02-12T08:04:18.439Z,27.50
2023-02-12T08:09:21.089Z,27.38
2023-02-12T08:14:22.790Z,28.63
2023-02-12T08:19:25.801Z,31.48
2023-02-12T08:24:26.975Z,30.42
2023-02-12T08:29:27.911Z,29.87
2023-02-12T08:34:28.204Z,29.60
2023-02-12T08:39:30.790Z,30.27
2023-02-12T08:44:29.967Z,29.52
2023-02-12T08:49:31.574Z,29.20
2023-02-12T08:54:32.834Z,26.80
2023-02-12T08:59:32.117Z,28.90
2023-02-12T09:04:31.441Z,31.60
2023-02-12T09:09:31.744Z,28.65
2023-02-12T09:14:30.521Z,30.35
2023-02-12T09:19:29.348Z,27.35
2023-02-12T09:24:28.562Z,27.05
2023-02-12T09:29:28.842Z,29.38
2023-02-12T09:34:27.878Z,68.22
2023-02-12T09:39:29.029Z,79.15
2023-02-12T09:44:38.495Z,50.38
2023-02-12T09:49:51.215Z,38.45
2023-02-12T09:54:50.967Z,31.85
2023-02-12T09:59:56.720Z,29.70
2023-02-12T10:05:01.723Z,30.02
2023-02-12T10:10:13.583Z,31.85
2023-02-12T10:15:29.099Z,30.52
2023-02-12T10:20:55.323Z,37.30
2023-02-12T10:25:56.841Z,31.15
2023-02-12T10:31:01.102Z,32.13
2023-02-12T10:36:06.389Z,28.42
2023-02-12T10:41:05.422Z,27.17
2023-02-12T10:46:06.340Z,30.70
2023-02-12T10:51:21.993Z,31.45
2023-02-12T10:56:27.724Z,27.33
2023-02-12T11:01:30.594Z,30.75
2023-02-12T11:06:31.675Z,28.80
2023-02-12T11:11:32.512Z,33.38
2023-02-12T11:16:35.494Z,33.25
2023-02-12T11:21:35.851Z,34.30
2023-02-12T11:26:34.792Z,33.42
2023-02-12T11:31:39.326Z,38.42
2023-02-12T11:36:40.247Z,35.17
2023-02-12T11:41:41.773Z,28.63
2023-02-12T11:46:48.729Z,33.78
2023-02-12T11:51:49.404Z,29.00
2023-02-12T11:56:48.988Z,28.17
2023-02-12T12:01:51.942Z,28.40
2023-02-12T12:06:57.735Z,31.83
2023-02-12T12:12:04.208Z,30.90
2023-02-12T12:17:27.383Z,29.95
2023-02-12T12:22:40.838Z,31.40
2023-02-12T12:28:06.544Z,33.33
2023-02-12T12:33:14.998Z,35.08
2023-02-12T12:38:25.460Z,29.48
2023-02-12T12:43:33.245Z,31.00
2023-02-12T12:48:54.248Z,31.63
2023-02-12T12:54:04.840Z,30.67
2023-02-12T12:59:45.580Z,30.65
2023-02-12T13:05:26.220Z,29.02
2023-02-12T13:10:34.962Z,32.28
2023-02-12T13:15:41.399Z,36.40
2023-02-12T13:20:52.685Z,31.80
2023-02-12T13:26:01.177Z,57.38
2023-02-12T13:31:03.695Z,30.02
2023-02-12T13:36:08.108Z,34.00
2023-02-12T13:41:09.418Z,34.35
2023-02-12T13:46:15.910Z,30.05
2023-02-12T13:51:28.174Z,32.75
2023-02-12T13:56:36.139Z,30.98
2023-02-12T14:01:47.605Z,34.17
2023-02-12T14:07:00.708Z,32.35
2023-02-12T14:12:01.496Z,33.80
2023-02-12T14:17:38.704Z,31.58
2023-02-12T14:23:19.787Z,31.35
2023-02-12T14:28:27.533Z,32.75
2023-02-12T14:33:28.353Z,37.45
2023-02-12T14:39:02.746Z,35.28
2023-02-12T14:44:44.657Z,33.60
2023-02-12T14:49:48.687Z,38.78
2023-02-12T14:54:50.979Z,34.97
2023-02-12T14:59:51.161Z,32.78
2023-02-12T15:04:54.311Z,32.25
2023-02-12T15:10:00.677Z,29.60
2023-02-12T15:15:07.413Z,30.85
2023-02-12T15:20:15.100Z,34.20
2023-02-12T15:25:18.979Z,34.13
2023-02-12T15:30:26.305Z,38.10
2023-02-12T15:35:29.761Z,42.33
2023-02-12T15:40:29.665Z,47.45
2023-02-12T15:45:30.309Z,50.10
2023-02-12T15:50:32.720Z,67.68
2023-02-12T15:55:40.883Z,135.32
2023-02-12T16:00:44.107Z,76.35
2023-02-12T16:05:45.278Z,65.60
2023-02-12T16:10:47.596Z,109.95
2023-02-12T16:15:46.427Z,212.40
2023-02-12T16:20:47.869Z,101.28
2023-02-12T16:25:56.023Z,83.00
2023-02-12T16:31:07.655Z,78.43
2023-02-12T16:36:14.393Z,82.78
2023-02-12T16:41:23.758Z,113.50
2023-02-12T16:46:23.074Z,82.72
2023-02-12T16:51:26.153Z,86.13
2023-02-12T16:56:26.617Z,84.57
2023-02-12T17:01:28.496Z,76.95
2023-02-12T17:06:30.907Z,63.70
2023-02-12T17:11:30.223Z,67.15
2023-02-12T17:16:31.201Z,77.50
2023-02-12T17:21:38.074Z,70.90
2023-02-12T17:26:36.989Z,69.45
2023-02-12T17:31:36.829Z,61.35
2023-02-12T17:36:37.340Z,57.00
2023-02-12T17:41:37.200Z,57.42
2023-02-12T17:46:36.075Z,61.00
2023-02-12T17:51:36.195Z,46.13
2023-02-12T17:56:34.999Z,49.08
2023-02-12T18:01:34.757Z,53.60
2023-02-12T18:06:33.742Z,52.58
2023-02-12T18:11:34.240Z,49.67
2023-02-12T18:16:35.293Z,51.70
2023-02-12T18:21:35.181Z,57.13
2023-02-12T18:26:35.495Z,76.30
2023-02-12T18:31:35.370Z,102.15
2023-02-12T18:36:34.911Z,80.47
2023-02-12T18:41:36.055Z,83.32
2023-02-12T18:46:34.951Z,84.03
2023-02-12T18:51:37.349Z,89.30
2023-02-12T18:56:41.059Z,92.72
2023-02-12T19:06:41.934Z,93.65
2023-02-12T19:11:42.070Z,102.32
2023-02-12T19:16:41.567Z,107.80
2023-02-12T19:21:40.796Z,111.05
2023-02-12T19:26:40.023Z,106.88
2023-02-12T19:31:58.920Z,103.40
2023-02-12T19:36:58.136Z,86.30
2023-02-12T19:41:57.314Z,74.75
2023-02-12T19:46:59.701Z,64.00
2023-02-12T19:51:59.042Z,71.72
2023-02-12T19:56:58.368Z,73.18
2023-02-12T20:01:59.561Z,70.97
2023-02-12T20:06:59.125Z,67.45
2023-02-12T20:11:58.398Z,64.30
2023-02-12T20:17:02.598Z,60.75
2023-02-12T20:22:04.812Z,52.45
2023-02-12T20:27:06.517Z,57.88
2023-02-12T20:32:08.589Z,60.90
2023-02-12T20:37:08.640Z,72.72
2023-02-12T20:42:09.158Z,87.35
2023-02-12T20:47:11.148Z,86.47
2023-02-12T20:52:11.438Z,79.33
2023-02-12T20:57:13.154Z,74.07
2023-02-12T21:02:13.541Z,69.53
2023-02-12T21:07:12.356Z,67.28
2023-02-12T21:12:20.581Z,58.47
2023-02-12T21:17:22.170Z,55.55
2023-02-12T21:22:21.563Z,51.97
2023-02-12T21:27:20.528Z,55.17
2023-02-12T21:32:20.827Z,75.63
2023-02-12T21:37:19.806Z,61.78
2023-02-12T21:42:18.551Z,58.60
2023-02-12T21:47:17.381Z,50.45
2023-02-12T21:52:17.482Z,39.65
2023-02-12T21:57:19.931Z,31.57
2023-02-12T22:02:18.822Z,27.73
2023-02-12T22:07:21.007Z,29.30
2023-02-12T22:12:19.809Z,26.93
2023-02-12T22:17:18.582Z,25.83
2023-02-12T22:22:18.841Z,23.60
2023-02-12T22:27:17.597Z,22.57
2023-02-12T22:32:16.430Z,18.93
2023-02-12T22:37:15.306Z,18.03
2023-02-12T22:42:15.437Z,17.83
2023-02-12T22:47:25.873Z,13.87
2023-02-12T22:52:26.050Z,15.30
2023-02-12T22:57:28.167Z,13.57
2023-02-12T23:02:26.942Z,14.17
2023-02-12T23:07:27.819Z,14.68
2023-02-12T23:12:27.954Z,15.77
2023-02-12T23:17:26.762Z,15.27
2023-02-12T23:22:25.582Z,16.97
2023-02-12T23:27:24.426Z,14.20
2023-02-12T23:32:24.671Z,14.13
2023-02-12T23:37:23.740Z,13.10
2023-02-12T23:42:22.586Z,13.40
2023-02-12T23:47:21.297Z,20.70
2023-02-12T23:52:21.405Z,21.67
2023-02-12T23:57:20.305Z,18.73
